Latest Weather Observations for Kuitpo

IDS60901

Issued at 11:31 pm CST Wednesday 27 May 2015 (issued every 10 minutes, with the page automatically refreshed every 10 minutes)

About weather observations | Map of Adelaide area stations | Latest observations for Adelaide area | Other Formats
Station Details ID: 023887 Name: KUITPO FOREST RESERVE Lat: -35.17 Lon: 138.68 Height: 365.0 m
Data from the previous 72 hours. | See also: Recent months at Kuitpo
Date/Time
CST
Tmp

°C
App
Tmp
°C
Dew
Point
°C
Rel
Hum
%
Delta-T

°C
Wind Press
QNH
hPa
Press
MSL
hPa
Rain
since
9 am
mm
Dir
 
Spd
km/h
Gust
km/h
Spd
kts
Gust
kts
27/11:30pm 12.2 10.8 12.2 100 0.0 N 11 17 6 9 1017.2 1017.0 0.0
27/11:00pm 12.7 11.1 12.7 100 0.0 N 13 20 7 11 1017.4 1017.2 0.0
27/10:30pm 12.6 11.3 12.6 100 0.0 N 11 17 6 9 1017.5 1017.3 0.0
27/10:00pm 12.5 11.6 12.5 100 0.0 N 9 15 5 8 1017.8 1017.6 0.0
27/09:30pm 13.1 12.0 13.1 100 0.0 N 11 17 6 9 1018.0 1017.8 0.0
27/09:00pm 13.4 12.0 13.4 100 0.0 N 13 22 7 12 1018.0 1017.8 0.0
27/08:30pm 13.4 12.4 13.4 100 0.0 N 11 15 6 8 1018.0 1017.8 0.0
27/08:00pm 13.2 12.1 13.2 100 0.0 N 11 15 6 8 1018.0 1017.8 0.0
27/07:30pm 13.2 12.5 13.2 100 0.0 N 9 17 5 9 1018.0 1017.8 0.0
27/07:00pm 13.0 11.9 13.0 100 0.0 NNW 11 17 6 9 1017.9 1017.7 0.0
27/06:30pm 13.3 12.3 13.3 100 0.0 NNW 11 17 6 9 1017.7 1017.5 0.0
27/06:00pm 13.3 12.3 13.3 100 0.0 NNW 11 20 6 11 1017.7 1017.5 0.0
27/05:30pm 13.9 13.0 13.7 99 0.1 NW 11 15 6 8 1017.6 1017.4 0.0
27/05:00pm 14.2 12.8 13.4 95 0.5 NW 13 19 7 10 1017.6 1017.4 0.0
27/04:30pm 15.0 14.1 13.7 92 0.7 NNW 11 19 6 10 1017.5 1017.3 0.0
27/04:00pm 15.4 14.3 14.3 93 0.6 NW 13 20 7 11 1017.5 1017.3 0.0
27/03:30pm 15.5 14.0 14.2 92 0.7 NW 15 24 8 13 1017.7 1017.5 0.0
27/03:00pm 15.2 12.7 13.6 90 0.9 WNW 19 30 10 16 1017.6 1017.4 0.0
27/02:30pm 15.4 12.5 12.9 85 1.4 WNW 20 30 11 16 1017.6 1017.4 0.0
27/02:00pm 15.8 13.5 12.9 83 1.6 WNW 17 28 9 15 1017.6 1017.4 0.0
27/01:30pm 15.5 12.5 12.6 83 1.6 NW 20 28 11 15 1017.7 1017.5 0.0
27/01:00pm 15.3 13.3 14.0 92 0.7 WNW 17 24 9 13 1018.0 1017.8 0.0
27/12:30pm 15.1 12.9 14.5 96 0.3 WNW 19 28 10 15 1018.5 1018.3 0.0
27/12:00pm 15.2 13.2 14.9 98 0.2 WNW 19 32 10 17 1018.9 1018.8 0.0
27/11:30am 15.0 12.3 13.5 91 0.8 WNW 20 35 11 19 1019.3 1019.1 0.0
27/11:00am 15.2 13.1 13.6 90 0.9 WNW 17 24 9 13 1019.6 1019.4 0.0
27/10:30am 15.1 13.9 14.1 94 0.6 NW 13 24 7 13 1019.8 1019.6 0.0
27/10:00am 14.9 14.3 14.6 98 0.2 NNW 11 17 6 9 1019.9 1019.7 0.0
27/09:30am 13.1 12.0 13.1 100 0.0 NNW 11 19 6 10 1019.9 1019.7 0.0
27/09:00am 12.5 11.2 12.5 100 0.0 NNW 11 20 6 11 1019.9 1019.7 0.0
27/08:30am 12.4 11.1 12.4 100 0.0 NNW 11 17 6 9 1019.8 1019.6 0.0
27/08:00am 12.3 11.3 12.3 100 0.0 NW 9 15 5 8 1019.7 1019.5 0.0
27/07:30am 11.0 9.6 11.0 100 0.0 N 9 13 5 7 1019.2 1019.0 0.0
27/07:00am 11.3 9.2 11.3 100 0.0 NNW 13 20 7 11 1018.8 1018.6 0.0
27/06:30am 12.2 10.4 12.2 100 0.0 NW 13 17 7 9 1018.8 1018.6 0.0
27/06:00am 12.3 10.6 12.3 100 0.0 NW 13 26 7 14 1018.6 1018.4 0.0
27/05:30am 12.4 9.9 12.4 100 0.0 NNW 17 28 9 15 1018.5 1018.3 0.0
27/05:00am 12.6 10.1 12.4 99 0.1 NW 17 24 9 13 1018.6 1018.4 0.0
27/04:30am 12.6 9.6 12.1 97 0.3 NW 19 28 10 15 1018.4 1018.2 0.0
27/04:00am 12.7 9.7 11.9 95 0.4 NW 19 26 10 14 1018.3 1018.1 0.0
27/03:30am 12.8 9.7 11.5 92 0.7 NW 19 26 10 14 1018.4 1018.2 0.0
27/03:00am 13.1 10.3 11.5 90 0.9 NW 17 28 9 15 1018.7 1018.5 0.0
27/02:30am 13.1 10.4 11.7 91 0.8 NNW 17 22 9 12 1018.8 1018.6 0.0
27/02:00am 13.1 11.2 11.8 92 0.7 N 13 20 7 11 1019.2 1019.0 0.0
27/01:30am 13.3 11.4 11.9 91 0.8 N 13 20 7 11 1019.2 1019.0 0.0
27/01:00am 12.9 11.5 12.1 95 0.4 N 11 15 6 8 1019.3 1019.1 0.0
27/12:30am 12.7 11.8 12.7 100 0.0 NNE 9 15 5 8 1019.5 1019.3 0.0
27/12:00am 12.6 11.3 12.6 100 0.0 N 11 15 6 8 1019.7 1019.5 0.0
 
Date/Time
CST
Tmp

°C
App
Tmp
°C
Dew
Point
°C
Rel
Hum
%
Delta-T

°C
Wind Press
QNH
hPa
Press
MSL
hPa
Rain
since
9 am
mm
Dir
 
Spd
km/h
Gust
km/h
Spd
kts
Gust
kts
26/11:30pm 13.0 11.8 11.7 92 0.7 N 9 15 5 8 1020.0 1019.8 0.0
26/11:00pm 13.6 12.3 11.1 85 1.3 NW 9 11 5 6 1020.1 1019.9 0.0
26/10:30pm 13.5 11.5 11.4 87 1.1 NNW 13 17 7 9 1020.4 1020.2 0.0
26/10:00pm 13.6 11.5 11.3 86 1.2 WNW 13 20 7 11 1020.5 1020.3 0.0
26/09:30pm 14.1 11.4 10.5 79 1.9 NW 15 22 8 12 1020.8 1020.6 0.0
26/09:00pm 14.3 12.0 10.3 77 2.1 NW 13 19 7 10 1020.6 1020.4 0.0
26/08:30pm 14.9 12.1 10.1 73 2.5 NW 15 22 8 12 1020.6 1020.4 0.0
26/08:00pm 14.7 12.4 10.5 76 2.2 NNW 13 19 7 10 1020.6 1020.4 0.0
26/07:30pm 14.5 13.0 10.7 78 2.0 NNW 9 15 5 8 1020.5 1020.3 0.0
26/07:00pm 14.4 12.9 10.4 77 2.1 N 9 13 5 7 1020.4 1020.2 0.0
26/06:30pm 14.1 12.8 10.1 77 2.1 N 7 9 4 5 1020.3 1020.1 0.0
26/06:00pm 14.0 12.7 9.8 76 2.2 N 7 9 4 5 1020.3 1020.1 0.0
26/05:30pm 14.4 13.0 9.6 73 2.5 N 7 9 4 5 1020.2 1020.0 0.0
26/05:00pm 15.0 13.7 10.0 72 2.7 NNW 7 9 4 5 1020.3 1020.1 0.0
26/04:30pm 16.6 15.2 10.9 69 3.1 NW 9 15 5 8 1020.3 1020.1 0.0
26/04:00pm 16.3 14.4 10.6 69 3.1 NNW 11 15 6 8 1020.4 1020.2 0.0
26/03:30pm 17.8 16.7 11.8 68 3.3 NNW 9 15 5 8 1020.4 1020.2 0.0
26/03:00pm 17.2 14.9 10.6 65 3.6 NW 13 17 7 9 1020.2 1020.0 0.0
26/02:30pm 18.0 16.9 11.8 67 3.5 NNW 9 17 5 9 1020.4 1020.2 0.0
26/02:00pm 17.4 16.1 11.4 68 3.3 NNW 9 19 5 10 1020.7 1020.5 0.0
26/01:30pm 17.0 15.2 10.8 67 3.4 NNW 11 17 6 9 1021.3 1021.2 0.0
26/01:00pm 16.9 15.0 10.5 66 3.5 NNW 11 20 6 11 1021.8 1021.7 0.0
26/12:30pm 17.1 14.9 10.7 66 3.5 NW 13 22 7 12 1022.3 1022.1 0.0
26/12:00pm 17.6 15.9 11.2 66 3.5 NNW 11 20 6 11 1022.7 1022.5 0.0
26/11:30am 16.5 14.9 11.6 73 2.7 NNW 11 20 6 11 1023.1 1022.9 0.0
26/11:00am 15.6 14.2 10.8 73 2.6 NNW 9 13 5 7 1023.6 1023.5 0.0
26/10:30am 15.6 14.2 11.0 74 2.5 NNW 9 13 5 7 1023.9 1023.8 0.0
26/10:00am 16.1 14.3 10.8 71 2.9 N 11 15 6 8 1024.0 1023.9 0.0
26/09:30am 15.7 14.0 11.1 74 2.5 NNW 11 17 6 9 1024.2 1024.1 0.0
26/09:00am 13.8 12.3 10.6 81 1.7 N 9 13 5 7 1024.3 1024.2 0.0
26/08:30am 13.1 11.6 10.6 85 1.3 N 9 11 5 6 1024.2 1024.1 0.0
26/08:00am 12.3 10.9 9.5 83 1.4 N 7 9 4 5 1024.2 1024.1 0.0
26/07:30am 12.1 10.7 9.5 84 1.3 N 7 9 4 5 1024.1 1024.0 0.0
26/07:00am 12.4 11.1 9.2 81 1.6 N 6 11 3 6 1024.2 1024.1 0.0
26/06:30am 12.0 10.3 9.7 86 1.2 N 9 11 5 6 1024.3 1024.2 0.0
26/06:00am 11.9 10.3 10.1 89 0.9 NE 9 11 5 6 1024.1 1024.0 0.0
26/05:30am 12.2 11.0 10.3 88 1.0 NNE 7 11 4 6 1024.0 1023.9 0.0
26/05:00am 12.1 10.5 10.2 88 1.0 NNE 9 11 5 6 1024.2 1024.1 0.0
26/04:30am 12.2 10.7 10.4 89 0.9 NNE 9 13 5 7 1024.2 1024.1 0.0
26/04:00am 12.1 10.6 10.7 91 0.7 NE 9 17 5 9 1024.2 1024.1 0.0
26/03:30am 11.8 9.6 10.9 94 0.5 NE 13 17 7 9 1024.1 1024.0 0.0
26/03:00am 11.9 10.0 10.6 92 0.7 NE 11 15 6 8 1024.4 1024.3 0.0
26/02:30am 11.9 10.4 10.6 92 0.7 NE 9 13 5 7 1024.6 1024.5 0.0
26/02:00am 11.8 9.9 10.4 91 0.7 NE 11 17 6 9 1025.2 1025.0 0.0
26/01:30am 12.0 10.0 10.1 88 1.0 NE 11 15 6 8 1025.2 1025.0 0.0
26/01:00am 12.0 9.9 9.9 87 1.1 NE 11 15 6 8 1025.2 1025.0 0.0
26/12:30am 12.2 9.8 9.9 86 1.2 NE 13 19 7 10 1025.2 1025.0 0.0
26/12:00am 12.2 9.0 9.9 86 1.2 NE 17 22 9 12 1025.4 1025.2 0.0
 
Date/Time
CST
Tmp

°C
App
Tmp
°C
Dew
Point
°C
Rel
Hum
%
Delta-T

°C
Wind Press
QNH
hPa
Press
MSL
hPa
Rain
since
9 am
mm
Dir
 
Spd
km/h
Gust
km/h
Spd
kts
Gust
kts
25/11:30pm 12.2 8.9 9.6 84 1.3 NE 17 22 9 12 1025.9 1025.8 0.0
25/11:00pm 12.2 9.2 9.2 82 1.5 NE 15 20 8 11 1026.1 1026.0 0.0
25/10:30pm 12.3 9.3 9.1 81 1.6 NE 15 20 8 11 1026.1 1026.0 0.0
25/10:00pm 12.0 9.1 9.6 85 1.2 NE 15 20 8 11 1026.1 1026.0 0.0
25/09:30pm 12.0 9.0 9.4 84 1.3 NE 15 20 8 11 1026.3 1026.2 0.0
25/09:00pm 12.3 9.0 9.7 84 1.3 ENE 17 22 9 12 1026.2 1026.1 0.0
25/08:30pm 12.0 9.1 9.6 85 1.2 NE 15 20 8 11 1026.3 1026.2 0.0
25/08:00pm 12.6 9.6 9.4 81 1.7 ENE 15 20 8 11 1026.1 1026.0 0.0
25/07:30pm 13.2 9.9 9.5 78 1.9 ENE 17 24 9 13 1026.2 1026.1 0.0
25/07:00pm 12.0 9.1 9.7 86 1.2 ESE 15 17 8 9 1026.3 1026.2 0.0
25/06:30pm 12.2 9.9 10.3 88 1.0 ESE 13 15 7 8 1026.0 1025.9 0.0
25/06:00pm 12.7 10.0 10.4 86 1.2 ESE 15 19 8 10 1025.9 1025.8 0.0
25/05:30pm 13.1 11.2 11.8 92 0.7 ESE 13 17 7 9 1025.8 1025.6 0.0
25/05:00pm 13.6 12.7 12.7 94 0.5 SE 9 13 5 7 1025.5 1025.3 0.0
25/04:30pm 14.7 13.9 11.8 83 1.6 SSE 7 11 4 6 1025.1 1024.9 0.0
25/04:00pm 15.2 15.2 11.2 77 2.2 S 2 6 1 3 1025.1 1024.9 0.0
25/03:30pm 15.6 14.2 11.0 74 2.5 WSW 9 15 5 8 1025.1 1024.9 0.0
25/03:00pm 16.2 15.8 9.8 66 3.4 SE 2 6 1 3 1025.1 1024.9 0.0
25/02:30pm 17.0 15.8 9.7 62 3.9 N 6 13 3 7 1025.0 1024.8 0.0
25/02:00pm 17.0 16.0 8.9 59 4.3 SE 4 7 2 4 1025.1 1024.9 0.0
25/01:30pm 17.5 16.1 9.7 60 4.2 N 7 13 4 7 1025.2 1025.0 0.0
25/01:00pm 17.2 15.8 8.9 58 4.4 N 6 11 3 6 1025.3 1025.1 0.0
25/12:30pm 16.8 16.2 8.8 59 4.2 ESE 2 9 1 5 1025.6 1025.4 0.0
25/12:00pm 16.2 14.5 8.4 60 4.0 NW 7 11 4 6 1026.2 1026.1 0.0
25/11:30am 16.0 14.2 9.4 65 3.5 NW 9 13 5 7 1026.9 1026.8 0.0
25/11:00am 16.5 15.0 10.4 67 3.3 NNW 9 15 5 8 1027.6 1027.5 0.0
25/10:30am 15.7 13.9 9.6 67 3.2 NNW 9 13 5 7 1027.8 1027.6 0.0
25/10:00am 15.0 13.5 9.1 68 3.1 NNW 7 11 4 6 1028.0 1027.8 0.0
25/09:30am 14.5 13.3 9.7 73 2.5 NNE 6 9 3 5 1028.1 1027.9 0.0
25/09:00am 14.2 13.8 9.6 74 2.4 N 2 7 1 4 1028.1 1027.9 0.0
25/08:30am 12.8 11.2 8.7 76 2.1 NE 7 9 4 5 1028.0 1027.8 0.0
25/08:00am 11.0 9.4 8.6 85 1.2 NNE 7 9 4 5 1028.0 1027.8 0.0
25/07:30am 10.1 8.2 7.5 84 1.3 NNE 7 9 4 5 1027.8 1027.6 0.0
25/07:00am 10.1 8.2 7.5 84 1.3 NNE 7 7 4 4 1027.5 1027.4 0.0
25/06:30am 10.6 8.6 7.1 79 1.7 N 7 7 4 4 1027.3 1027.2 0.0
25/06:00am 10.7 8.9 7.2 79 1.7 N 6 7 3 4 1027.1 1027.0 0.0
25/05:30am 10.5 8.7 7.2 80 1.6 N 6 9 3 5 1026.9 1026.8 0.0
25/05:00am 10.8 8.9 7.7 81 1.5 NNE 7 9 4 5 1026.8 1026.7 0.0
25/04:30am 11.2 9.3 7.7 79 1.7 NE 7 9 4 5 1026.8 1026.7 0.0
25/04:00am 10.5 8.4 8.1 85 1.2 NNE 9 11 5 6 1026.6 1026.5 0.0
25/03:30am 11.2 9.1 8.1 81 1.5 NNE 9 13 5 7 1026.7 1026.6 0.0
25/03:00am 10.9 9.1 7.8 81 1.5 NNE 7 11 4 6 1027.1 1027.0 0.0
25/02:30am 11.9 10.0 6.8 71 2.5 NW 6 9 3 5 1027.4 1027.3 0.0
25/02:00am 11.2 9.3 7.7 79 1.7 N 7 11 4 6 1027.5 1027.4 0.0
25/01:30am 10.7 8.9 7.8 82 1.4 NNE 7 9 4 5 1027.2 1027.1 0.0
25/01:00am 10.9 9.1 8.1 83 1.4 NE 7 11 4 6 1027.1 1027.0 0.0
25/12:30am 10.8 8.7 8.2 84 1.3 NE 9 13 5 7 1027.3 1027.2 0.0
25/12:00am 10.8 8.3 8.2 84 1.3 NE 11 15 6 8 1027.4 1027.3 0.0

Latest Capital City Observations: Canberra | Sydney | Melbourne | Brisbane | Adelaide | Perth | Hobart | Darwin

Other Formats:

Comma delimited format used in spreadsheet applications
http://www.bom.gov.au/fwo/IDS60901/IDS60901.94683.axf

JavaScript Object Notation format (JSON) in row-major order
http://www.bom.gov.au/fwo/IDS60901/IDS60901.94683.json